sensor_id;sensor_type;location;lat;lon;timestamp;P1;durP1;ratioP1;P2;durP2;ratioP2
49978;SDS011;35869;50.990;6.962;2023-03-20T00:04:46;15.38;;;11.57;;
49978;SDS011;35869;50.990;6.962;2023-03-20T00:09:47;12.70;;;9.43;;
49978;SDS011;35869;50.990;6.962;2023-03-20T00:14:47;18.35;;;11.15;;
49978;SDS011;35869;50.990;6.962;2023-03-20T00:19:47;17.35;;;11.73;;
49978;SDS011;35869;50.990;6.962;2023-03-20T00:24:47;14.20;;;10.33;;
49978;SDS011;35869;50.990;6.962;2023-03-20T00:29:48;17.08;;;11.27;;
49978;SDS011;35869;50.990;6.962;2023-03-20T00:34:48;15.10;;;9.93;;
49978;SDS011;35869;50.990;6.962;2023-03-20T00:39:48;14.13;;;8.65;;
49978;SDS011;35869;50.990;6.962;2023-03-20T00:44:49;15.63;;;10.57;;
49978;SDS011;35869;50.990;6.962;2023-03-20T00:49:52;13.57;;;9.82;;
49978;SDS011;35869;50.990;6.962;2023-03-20T00:54:53;16.35;;;10.20;;
49978;SDS011;35869;50.990;6.962;2023-03-20T00:59:55;20.65;;;11.43;;
49978;SDS011;35869;50.990;6.962;2023-03-20T01:05:00;17.95;;;12.75;;
49978;SDS011;35869;50.990;6.962;2023-03-20T01:15:00;17.30;;;11.65;;
49978;SDS011;35869;50.990;6.962;2023-03-20T01:20:01;18.00;;;12.25;;
49978;SDS011;35869;50.990;6.962;2023-03-20T01:25:01;21.00;;;11.98;;
49978;SDS011;35869;50.990;6.962;2023-03-20T01:30:01;22.75;;;13.30;;
49978;SDS011;35869;50.990;6.962;2023-03-20T01:35:02;22.87;;;13.20;;
49978;SDS011;35869;50.990;6.962;2023-03-20T01:40:02;24.13;;;13.27;;
49978;SDS011;35869;50.990;6.962;2023-03-20T01:45:09;21.17;;;13.63;;
49978;SDS011;35869;50.990;6.962;2023-03-20T01:50:19;23.92;;;14.18;;
49978;SDS011;35869;50.990;6.962;2023-03-20T01:55:29;22.80;;;14.88;;
49978;SDS011;35869;50.990;6.962;2023-03-20T02:05:30;25.55;;;14.73;;
49978;SDS011;35869;50.990;6.962;2023-03-20T02:10:31;25.95;;;14.95;;
49978;SDS011;35869;50.990;6.962;2023-03-20T02:15:32;22.48;;;14.88;;
49978;SDS011;35869;50.990;6.962;2023-03-20T02:20:43;22.70;;;14.30;;
49978;SDS011;35869;50.990;6.962;2023-03-20T02:25:58;22.55;;;14.32;;
49978;SDS011;35869;50.990;6.962;2023-03-20T02:46:59;20.27;;;13.40;;
49978;SDS011;35869;50.990;6.962;2023-03-20T02:52:05;22.88;;;13.32;;
49978;SDS011;35869;50.990;6.962;2023-03-20T03:02:34;20.27;;;12.95;;
49978;SDS011;35869;50.990;6.962;2023-03-20T03:07:37;20.27;;;13.25;;
49978;SDS011;35869;50.990;6.962;2023-03-20T03:12:43;21.10;;;13.50;;
49978;SDS011;35869;50.990;6.962;2023-03-20T03:17:47;21.10;;;13.52;;
49978;SDS011;35869;50.990;6.962;2023-03-20T03:22:48;19.13;;;12.45;;
49978;SDS011;35869;50.990;6.962;2023-03-20T03:38:22;19.15;;;13.35;;
49978;SDS011;35869;50.990;6.962;2023-03-20T03:43:40;24.95;;;14.23;;
49978;SDS011;35869;50.990;6.962;2023-03-20T03:48:43;24.40;;;14.07;;
49978;SDS011;35869;50.990;6.962;2023-03-20T03:54:10;19.02;;;14.07;;
49978;SDS011;35869;50.990;6.962;2023-03-20T03:59:19;22.45;;;14.68;;
49978;SDS011;35869;50.990;6.962;2023-03-20T04:04:36;23.60;;;14.02;;
49978;SDS011;35869;50.990;6.962;2023-03-20T04:09:41;24.95;;;14.20;;
49978;SDS011;35869;50.990;6.962;2023-03-20T04:14:42;22.20;;;13.73;;
49978;SDS011;35869;50.990;6.962;2023-03-20T04:19:42;25.90;;;11.80;;
49978;SDS011;35869;50.990;6.962;2023-03-20T04:24:42;24.48;;;13.00;;
49978;SDS011;35869;50.990;6.962;2023-03-20T04:29:42;19.60;;;12.70;;
49978;SDS011;35869;50.990;6.962;2023-03-20T04:34:42;20.30;;;12.00;;
49978;SDS011;35869;50.990;6.962;2023-03-20T04:39:43;18.40;;;11.95;;
49978;SDS011;35869;50.990;6.962;2023-03-20T04:44:43;21.35;;;12.30;;
49978;SDS011;35869;50.990;6.962;2023-03-20T04:49:43;18.13;;;11.50;;
49978;SDS011;35869;50.990;6.962;2023-03-20T04:54:43;19.38;;;12.02;;
49978;SDS011;35869;50.990;6.962;2023-03-20T04:59:43;22.45;;;11.07;;
49978;SDS011;35869;50.990;6.962;2023-03-20T05:04:44;20.42;;;11.48;;
49978;SDS011;35869;50.990;6.962;2023-03-20T05:09:44;18.88;;;11.05;;
49978;SDS011;35869;50.990;6.962;2023-03-20T05:14:44;17.63;;;10.75;;
49978;SDS011;35869;50.990;6.962;2023-03-20T05:19:44;20.30;;;11.70;;
49978;SDS011;35869;50.990;6.962;2023-03-20T05:24:44;18.08;;;11.50;;
49978;SDS011;35869;50.990;6.962;2023-03-20T05:29:45;19.08;;;11.57;;
49978;SDS011;35869;50.990;6.962;2023-03-20T05:34:45;20.52;;;11.63;;
49978;SDS011;35869;50.990;6.962;2023-03-20T05:39:45;17.40;;;11.45;;
49978;SDS011;35869;50.990;6.962;2023-03-20T05:44:45;19.77;;;11.30;;
49978;SDS011;35869;50.990;6.962;2023-03-20T05:49:45;18.75;;;10.07;;
49978;SDS011;35869;50.990;6.962;2023-03-20T05:54:46;15.40;;;9.63;;
49978;SDS011;35869;50.990;6.962;2023-03-20T05:59:46;16.67;;;10.20;;
49978;SDS011;35869;50.990;6.962;2023-03-20T06:04:46;16.20;;;9.43;;
49978;SDS011;35869;50.990;6.962;2023-03-20T06:09:46;16.85;;;10.18;;
49978;SDS011;35869;50.990;6.962;2023-03-20T06:14:46;15.85;;;9.38;;
49978;SDS011;35869;50.990;6.962;2023-03-20T06:19:47;18.38;;;10.35;;
49978;SDS011;35869;50.990;6.962;2023-03-20T06:24:47;18.73;;;11.40;;
49978;SDS011;35869;50.990;6.962;2023-03-20T06:29:47;18.13;;;10.40;;
49978;SDS011;35869;50.990;6.962;2023-03-20T06:34:47;16.48;;;9.95;;
49978;SDS011;35869;50.990;6.962;2023-03-20T06:39:48;17.42;;;10.25;;
49978;SDS011;35869;50.990;6.962;2023-03-20T06:44:48;17.65;;;10.63;;
49978;SDS011;35869;50.990;6.962;2023-03-20T06:49:48;21.07;;;10.77;;
49978;SDS011;35869;50.990;6.962;2023-03-20T06:54:48;17.80;;;9.93;;
49978;SDS011;35869;50.990;6.962;2023-03-20T06:59:49;23.70;;;12.60;;
49978;SDS011;35869;50.990;6.962;2023-03-20T07:04:49;18.40;;;11.20;;
49978;SDS011;35869;50.990;6.962;2023-03-20T07:09:49;19.73;;;12.00;;
49978;SDS011;35869;50.990;6.962;2023-03-20T07:14:49;21.05;;;11.63;;
49978;SDS011;35869;50.990;6.962;2023-03-20T07:19:49;17.35;;;11.60;;
49978;SDS011;35869;50.990;6.962;2023-03-20T07:24:50;17.73;;;11.43;;
49978;SDS011;35869;50.990;6.962;2023-03-20T07:29:50;17.03;;;11.37;;
49978;SDS011;35869;50.990;6.962;2023-03-20T07:34:50;15.45;;;9.77;;
49978;SDS011;35869;50.990;6.962;2023-03-20T07:39:51;13.60;;;9.02;;
49978;SDS011;35869;50.990;6.962;2023-03-20T07:44:51;14.95;;;9.88;;
49978;SDS011;35869;50.990;6.962;2023-03-20T07:49:51;14.68;;;8.80;;
49978;SDS011;35869;50.990;6.962;2023-03-20T07:54:51;13.38;;;8.18;;
49978;SDS011;35869;50.990;6.962;2023-03-20T07:59:51;13.52;;;8.48;;
49978;SDS011;35869;50.990;6.962;2023-03-20T08:04:52;14.13;;;7.37;;
49978;SDS011;35869;50.990;6.962;2023-03-20T08:09:52;11.98;;;7.13;;
49978;SDS011;35869;50.990;6.962;2023-03-20T08:14:52;9.13;;;5.63;;
49978;SDS011;35869;50.990;6.962;2023-03-20T08:19:52;7.55;;;4.72;;
49978;SDS011;35869;50.990;6.962;2023-03-20T08:24:53;13.15;;;6.47;;
49978;SDS011;35869;50.990;6.962;2023-03-20T08:29:53;8.27;;;5.22;;
49978;SDS011;35869;50.990;6.962;2023-03-20T08:34:53;9.88;;;5.47;;
49978;SDS011;35869;50.990;6.962;2023-03-20T08:39:53;8.90;;;5.70;;
49978;SDS011;35869;50.990;6.962;2023-03-20T08:44:54;8.88;;;5.88;;
49978;SDS011;35869;50.990;6.962;2023-03-20T08:49:54;10.50;;;6.53;;
49978;SDS011;35869;50.990;6.962;2023-03-20T08:54:54;9.40;;;6.00;;
49978;SDS011;35869;50.990;6.962;2023-03-20T08:59:54;9.75;;;5.93;;
49978;SDS011;35869;50.990;6.962;2023-03-20T09:04:54;10.57;;;6.35;;
49978;SDS011;35869;50.990;6.962;2023-03-20T09:09:55;12.75;;;6.75;;
49978;SDS011;35869;50.990;6.962;2023-03-20T09:14:55;11.13;;;6.72;;
49978;SDS011;35869;50.990;6.962;2023-03-20T09:19:55;8.90;;;6.05;;
49978;SDS011;35869;50.990;6.962;2023-03-20T09:24:55;13.15;;;7.05;;
49978;SDS011;35869;50.990;6.962;2023-03-20T09:29:55;11.77;;;7.40;;
49978;SDS011;35869;50.990;6.962;2023-03-20T09:34:56;11.70;;;7.03;;
49978;SDS011;35869;50.990;6.962;2023-03-20T09:39:56;12.25;;;7.90;;
49978;SDS011;35869;50.990;6.962;2023-03-20T09:45:00;14.68;;;9.43;;
49978;SDS011;35869;50.990;6.962;2023-03-20T09:50:12;12.65;;;7.85;;
49978;SDS011;35869;50.990;6.962;2023-03-20T09:55:20;14.93;;;8.07;;
49978;SDS011;35869;50.990;6.962;2023-03-20T10:00:26;13.73;;;8.60;;
49978;SDS011;35869;50.990;6.962;2023-03-20T10:05:36;14.43;;;9.35;;
49978;SDS011;35869;50.990;6.962;2023-03-20T10:11:01;12.95;;;8.38;;
49978;SDS011;35869;50.990;6.962;2023-03-20T10:16:14;12.32;;;8.55;;
49978;SDS011;35869;50.990;6.962;2023-03-20T10:21:21;11.90;;;7.70;;
49978;SDS011;35869;50.990;6.962;2023-03-20T10:26:33;11.68;;;8.82;;
49978;SDS011;35869;50.990;6.962;2023-03-20T10:37:10;8.60;;;5.43;;
49978;SDS011;35869;50.990;6.962;2023-03-20T10:42:14;10.83;;;5.60;;
49978;SDS011;35869;50.990;6.962;2023-03-20T10:47:20;10.13;;;4.80;;
49978;SDS011;35869;50.990;6.962;2023-03-20T10:52:26;12.70;;;5.78;;
49978;SDS011;35869;50.990;6.962;2023-03-20T10:57:29;7.90;;;3.95;;
49978;SDS011;35869;50.990;6.962;2023-03-20T11:02:32;6.68;;;3.83;;
49978;SDS011;35869;50.990;6.962;2023-03-20T11:07:34;11.55;;;3.58;;
49978;SDS011;35869;50.990;6.962;2023-03-20T11:12:43;8.38;;;3.70;;
49978;SDS011;35869;50.990;6.962;2023-03-20T11:17:58;5.15;;;3.25;;
49978;SDS011;35869;50.990;6.962;2023-03-20T11:23:01;5.82;;;2.88;;
49978;SDS011;35869;50.990;6.962;2023-03-20T11:33:42;4.20;;;1.98;;
49978;SDS011;35869;50.990;6.962;2023-03-20T11:38:44;3.33;;;1.73;;
49978;SDS011;35869;50.990;6.962;2023-03-20T11:43:45;4.23;;;2.20;;
49978;SDS011;35869;50.990;6.962;2023-03-20T11:48:45;6.15;;;2.72;;
49978;SDS011;35869;50.990;6.962;2023-03-20T11:58:56;4.90;;;2.20;;
49978;SDS011;35869;50.990;6.962;2023-03-20T12:04:14;4.15;;;2.20;;
49978;SDS011;35869;50.990;6.962;2023-03-20T12:19:41;6.97;;;2.45;;
49978;SDS011;35869;50.990;6.962;2023-03-20T12:24:59;6.80;;;2.60;;
49978;SDS011;35869;50.990;6.962;2023-03-20T12:35:27;4.85;;;2.72;;
49978;SDS011;35869;50.990;6.962;2023-03-20T12:40:38;8.48;;;2.63;;
49978;SDS011;35869;50.990;6.962;2023-03-20T12:45:45;4.82;;;2.22;;
49978;SDS011;35869;50.990;6.962;2023-03-20T12:50:58;5.90;;;2.45;;
49978;SDS011;35869;50.990;6.962;2023-03-20T13:07:03;3.75;;;1.48;;
49978;SDS011;35869;50.990;6.962;2023-03-20T13:38:56;3.85;;;1.85;;
49978;SDS011;35869;50.990;6.962;2023-03-20T13:44:00;3.78;;;1.65;;
49978;SDS011;35869;50.990;6.962;2023-03-20T13:49:05;6.57;;;2.33;;
49978;SDS011;35869;50.990;6.962;2023-03-20T14:04:49;2.35;;;1.50;;
49978;SDS011;35869;50.990;6.962;2023-03-20T14:09:52;4.25;;;1.70;;
49978;SDS011;35869;50.990;6.962;2023-03-20T14:14:56;2.80;;;1.48;;
49978;SDS011;35869;50.990;6.962;2023-03-20T14:20:08;3.53;;;1.90;;
49978;SDS011;35869;50.990;6.962;2023-03-20T14:25:15;3.35;;;1.80;;
49978;SDS011;35869;50.990;6.962;2023-03-20T14:30:50;5.07;;;1.90;;
49978;SDS011;35869;50.990;6.962;2023-03-20T14:35:48;4.90;;;2.17;;
49978;SDS011;35869;50.990;6.962;2023-03-20T14:41:13;4.65;;;1.67;;
49978;SDS011;35869;50.990;6.962;2023-03-20T14:46:24;4.80;;;2.10;;
49978;SDS011;35869;50.990;6.962;2023-03-20T14:56:36;4.18;;;2.10;;
49978;SDS011;35869;50.990;6.962;2023-03-20T15:06:44;5.18;;;2.20;;
49978;SDS011;35869;50.990;6.962;2023-03-20T15:11:48;7.63;;;2.70;;
49978;SDS011;35869;50.990;6.962;2023-03-20T15:16:55;9.05;;;2.78;;
49978;SDS011;35869;50.990;6.962;2023-03-20T15:21:57;6.72;;;2.15;;
49978;SDS011;35869;50.990;6.962;2023-03-20T15:26:58;5.32;;;2.30;;
49978;SDS011;35869;50.990;6.962;2023-03-20T15:32:00;5.25;;;2.45;;
49978;SDS011;35869;50.990;6.962;2023-03-20T15:37:01;7.03;;;2.10;;
49978;SDS011;35869;50.990;6.962;2023-03-20T15:42:02;7.68;;;2.17;;
49978;SDS011;35869;50.990;6.962;2023-03-20T15:52:19;5.75;;;2.20;;
49978;SDS011;35869;50.990;6.962;2023-03-20T15:57:36;6.90;;;2.40;;
49978;SDS011;35869;50.990;6.962;2023-03-20T16:02:38;4.85;;;1.88;;
49978;SDS011;35869;50.990;6.962;2023-03-20T16:07:39;3.90;;;2.10;;
49978;SDS011;35869;50.990;6.962;2023-03-20T16:12:44;4.05;;;2.25;;
49978;SDS011;35869;50.990;6.962;2023-03-20T16:17:48;4.63;;;2.08;;
49978;SDS011;35869;50.990;6.962;2023-03-20T16:22:54;4.57;;;2.08;;
49978;SDS011;35869;50.990;6.962;2023-03-20T16:28:00;5.85;;;2.75;;
49978;SDS011;35869;50.990;6.962;2023-03-20T16:33:05;3.90;;;2.38;;
49978;SDS011;35869;50.990;6.962;2023-03-20T16:38:22;5.95;;;2.15;;
49978;SDS011;35869;50.990;6.962;2023-03-20T16:43:30;7.82;;;2.28;;
49978;SDS011;35869;50.990;6.962;2023-03-20T16:48:34;5.07;;;2.20;;
49978;SDS011;35869;50.990;6.962;2023-03-20T16:53:44;4.38;;;2.10;;
49978;SDS011;35869;50.990;6.962;2023-03-20T16:58:46;4.88;;;2.60;;
49978;SDS011;35869;50.990;6.962;2023-03-20T17:09:01;4.10;;;2.03;;
49978;SDS011;35869;50.990;6.962;2023-03-20T17:14:14;8.00;;;2.30;;
49978;SDS011;35869;50.990;6.962;2023-03-20T17:19:16;5.30;;;2.60;;
49978;SDS011;35869;50.990;6.962;2023-03-20T17:24:17;4.78;;;2.90;;
49978;SDS011;35869;50.990;6.962;2023-03-20T17:29:18;6.80;;;2.60;;
49978;SDS011;35869;50.990;6.962;2023-03-20T17:34:18;6.88;;;3.00;;
49978;SDS011;35869;50.990;6.962;2023-03-20T17:39:19;8.23;;;3.78;;
49978;SDS011;35869;50.990;6.962;2023-03-20T17:44:20;5.15;;;2.60;;
49978;SDS011;35869;50.990;6.962;2023-03-20T17:54:21;6.88;;;2.40;;
49978;SDS011;35869;50.990;6.962;2023-03-20T17:59:21;7.63;;;4.33;;
49978;SDS011;35869;50.990;6.962;2023-03-20T18:04:21;4.50;;;2.53;;
49978;SDS011;35869;50.990;6.962;2023-03-20T18:09:22;6.15;;;2.10;;
49978;SDS011;35869;50.990;6.962;2023-03-20T18:14:22;4.90;;;2.10;;
49978;SDS011;35869;50.990;6.962;2023-03-20T18:19:23;7.68;;;2.45;;
49978;SDS011;35869;50.990;6.962;2023-03-20T18:24:25;4.72;;;2.33;;
49978;SDS011;35869;50.990;6.962;2023-03-20T18:29:26;6.20;;;2.47;;
49978;SDS011;35869;50.990;6.962;2023-03-20T18:34:26;5.90;;;2.40;;
49978;SDS011;35869;50.990;6.962;2023-03-20T18:39:27;6.97;;;2.22;;
49978;SDS011;35869;50.990;6.962;2023-03-20T18:44:27;7.15;;;2.28;;
49978;SDS011;35869;50.990;6.962;2023-03-20T18:49:27;4.65;;;2.03;;
49978;SDS011;35869;50.990;6.962;2023-03-20T18:54:27;9.77;;;3.08;;
49978;SDS011;35869;50.990;6.962;2023-03-20T18:59:27;7.43;;;2.67;;
49978;SDS011;35869;50.990;6.962;2023-03-20T19:04:28;5.68;;;2.78;;
49978;SDS011;35869;50.990;6.962;2023-03-20T19:09:28;7.97;;;2.00;;
49978;SDS011;35869;50.990;6.962;2023-03-20T19:14:28;7.30;;;2.25;;
49978;SDS011;35869;50.990;6.962;2023-03-20T19:19:28;4.80;;;1.70;;
49978;SDS011;35869;50.990;6.962;2023-03-20T19:24:28;7.57;;;3.65;;
49978;SDS011;35869;50.990;6.962;2023-03-20T19:29:28;5.43;;;2.72;;
49978;SDS011;35869;50.990;6.962;2023-03-20T19:34:29;4.53;;;2.80;;
49978;SDS011;35869;50.990;6.962;2023-03-20T19:39:29;7.53;;;2.85;;
49978;SDS011;35869;50.990;6.962;2023-03-20T19:44:29;9.43;;;2.92;;
49978;SDS011;35869;50.990;6.962;2023-03-20T19:49:29;5.55;;;2.97;;
49978;SDS011;35869;50.990;6.962;2023-03-20T19:54:30;6.13;;;2.58;;
49978;SDS011;35869;50.990;6.962;2023-03-20T19:59:30;4.20;;;2.30;;
49978;SDS011;35869;50.990;6.962;2023-03-20T20:04:30;4.05;;;1.95;;
49978;SDS011;35869;50.990;6.962;2023-03-20T20:09:30;4.53;;;2.38;;
49978;SDS011;35869;50.990;6.962;2023-03-20T20:14:30;3.22;;;2.28;;
49978;SDS011;35869;50.990;6.962;2023-03-20T20:19:31;6.28;;;2.70;;
49978;SDS011;35869;50.990;6.962;2023-03-20T20:24:31;6.63;;;2.30;;
49978;SDS011;35869;50.990;6.962;2023-03-20T20:29:31;7.07;;;3.37;;
49978;SDS011;35869;50.990;6.962;2023-03-20T20:34:31;9.15;;;4.22;;
49978;SDS011;35869;50.990;6.962;2023-03-20T20:39:32;7.85;;;5.07;;
49978;SDS011;35869;50.990;6.962;2023-03-20T20:44:32;6.90;;;4.20;;
49978;SDS011;35869;50.990;6.962;2023-03-20T20:49:32;6.18;;;3.17;;
49978;SDS011;35869;50.990;6.962;2023-03-20T20:54:32;6.20;;;4.07;;
49978;SDS011;35869;50.990;6.962;2023-03-20T20:59:33;9.97;;;3.57;;
49978;SDS011;35869;50.990;6.962;2023-03-20T21:04:33;9.63;;;3.38;;
49978;SDS011;35869;50.990;6.962;2023-03-20T21:09:33;4.85;;;2.65;;
49978;SDS011;35869;50.990;6.962;2023-03-20T21:14:33;8.40;;;3.33;;
49978;SDS011;35869;50.990;6.962;2023-03-20T21:19:35;7.17;;;3.43;;
49978;SDS011;35869;50.990;6.962;2023-03-20T21:24:37;7.15;;;3.00;;
49978;SDS011;35869;50.990;6.962;2023-03-20T21:29:38;6.13;;;2.72;;
49978;SDS011;35869;50.990;6.962;2023-03-20T21:34:40;4.97;;;3.00;;
49978;SDS011;35869;50.990;6.962;2023-03-20T21:39:40;9.80;;;3.58;;
49978;SDS011;35869;50.990;6.962;2023-03-20T21:44:40;6.68;;;3.47;;
49978;SDS011;35869;50.990;6.962;2023-03-20T21:49:40;5.85;;;2.60;;
49978;SDS011;35869;50.990;6.962;2023-03-20T21:54:40;3.78;;;2.47;;
49978;SDS011;35869;50.990;6.962;2023-03-20T21:59:41;5.05;;;2.95;;
49978;SDS011;35869;50.990;6.962;2023-03-20T22:04:41;6.00;;;3.28;;
49978;SDS011;35869;50.990;6.962;2023-03-20T22:09:42;5.45;;;3.22;;
49978;SDS011;35869;50.990;6.962;2023-03-20T22:14:42;4.68;;;2.80;;
49978;SDS011;35869;50.990;6.962;2023-03-20T22:19:43;8.57;;;3.67;;
49978;SDS011;35869;50.990;6.962;2023-03-20T22:24:43;7.72;;;3.35;;
49978;SDS011;35869;50.990;6.962;2023-03-20T22:29:43;8.70;;;3.45;;
49978;SDS011;35869;50.990;6.962;2023-03-20T22:34:43;6.80;;;3.25;;
49978;SDS011;35869;50.990;6.962;2023-03-20T22:39:43;7.10;;;3.55;;
49978;SDS011;35869;50.990;6.962;2023-03-20T22:44:44;5.97;;;3.93;;
49978;SDS011;35869;50.990;6.962;2023-03-20T22:49:44;8.18;;;3.05;;
49978;SDS011;35869;50.990;6.962;2023-03-20T22:54:44;8.90;;;3.50;;
49978;SDS011;35869;50.990;6.962;2023-03-20T22:59:44;5.63;;;3.30;;
49978;SDS011;35869;50.990;6.962;2023-03-20T23:04:44;6.05;;;3.55;;
49978;SDS011;35869;50.990;6.962;2023-03-20T23:09:45;14.63;;;3.75;;
49978;SDS011;35869;50.990;6.962;2023-03-20T23:19:46;8.68;;;4.22;;
49978;SDS011;35869;50.990;6.962;2023-03-20T23:24:46;6.43;;;3.67;;
49978;SDS011;35869;50.990;6.962;2023-03-20T23:29:46;7.78;;;3.40;;
49978;SDS011;35869;50.990;6.962;2023-03-20T23:34:47;6.28;;;3.50;;
49978;SDS011;35869;50.990;6.962;2023-03-20T23:39:47;6.68;;;3.78;;
49978;SDS011;35869;50.990;6.962;2023-03-20T23:44:47;7.25;;;3.65;;
49978;SDS011;35869;50.990;6.962;2023-03-20T23:49:47;7.78;;;3.50;;
49978;SDS011;35869;50.990;6.962;2023-03-20T23:54:47;6.55;;;3.50;;
49978;SDS011;35869;50.990;6.962;2023-03-20T23:59:48;6.28;;;3.45;;
